sensor_id;sensor_type;location;lat;lon;timestamp;P1;durP1;ratioP1;P2;durP2;ratioP2
63112;SDS011;49206;48.020;21.378;2023-04-06T00:00:54;9.77;;;5.57;;
63112;SDS011;49206;48.020;21.378;2023-04-06T00:01:57;10.27;;;5.65;;
63112;SDS011;49206;48.020;21.378;2023-04-06T00:02:59;8.45;;;5.47;;
63112;SDS011;49206;48.020;21.378;2023-04-06T00:04:02;9.80;;;5.38;;
63112;SDS011;49206;48.020;21.378;2023-04-06T00:05:05;7.10;;;5.50;;
63112;SDS011;49206;48.020;21.378;2023-04-06T00:06:08;9.35;;;5.57;;
63112;SDS011;49206;48.020;21.378;2023-04-06T00:07:10;7.75;;;5.72;;
63112;SDS011;49206;48.020;21.378;2023-04-06T00:08:13;7.82;;;5.07;;
63112;SDS011;49206;48.020;21.378;2023-04-06T00:09:15;8.85;;;5.32;;
63112;SDS011;49206;48.020;21.378;2023-04-06T00:10:18;9.95;;;5.55;;
63112;SDS011;49206;48.020;21.378;2023-04-06T00:11:20;9.13;;;5.53;;
63112;SDS011;49206;48.020;21.378;2023-04-06T00:12:23;9.40;;;5.80;;
63112;SDS011;49206;48.020;21.378;2023-04-06T00:13:25;10.70;;;6.40;;
63112;SDS011;49206;48.020;21.378;2023-04-06T00:14:27;6.25;;;4.97;;
63112;SDS011;49206;48.020;21.378;2023-04-06T00:15:30;9.75;;;5.72;;
63112;SDS011;49206;48.020;21.378;2023-04-06T00:16:32;10.48;;;5.88;;
63112;SDS011;49206;48.020;21.378;2023-04-06T00:17:34;9.10;;;5.35;;
63112;SDS011;49206;48.020;21.378;2023-04-06T00:18:38;9.15;;;5.80;;
63112;SDS011;49206;48.020;21.378;2023-04-06T00:19:41;7.38;;;5.15;;
63112;SDS011;49206;48.020;21.378;2023-04-06T00:20:44;9.13;;;5.68;;
63112;SDS011;49206;48.020;21.378;2023-04-06T00:21:47;8.13;;;6.18;;
63112;SDS011;49206;48.020;21.378;2023-04-06T00:22:50;8.02;;;5.55;;
63112;SDS011;49206;48.020;21.378;2023-04-06T00:23:52;6.93;;;4.93;;
63112;SDS011;49206;48.020;21.378;2023-04-06T00:24:54;8.05;;;5.35;;
63112;SDS011;49206;48.020;21.378;2023-04-06T00:25:57;8.52;;;6.45;;
63112;SDS011;49206;48.020;21.378;2023-04-06T00:26:59;10.30;;;5.47;;
63112;SDS011;49206;48.020;21.378;2023-04-06T00:28:03;8.20;;;5.47;;
63112;SDS011;49206;48.020;21.378;2023-04-06T00:29:06;8.70;;;5.57;;
63112;SDS011;49206;48.020;21.378;2023-04-06T00:30:09;9.32;;;5.47;;
63112;SDS011;49206;48.020;21.378;2023-04-06T00:31:11;12.32;;;5.53;;
63112;SDS011;49206;48.020;21.378;2023-04-06T00:32:14;8.55;;;5.60;;
63112;SDS011;49206;48.020;21.378;2023-04-06T00:33:16;8.15;;;5.50;;
63112;SDS011;49206;48.020;21.378;2023-04-06T00:34:19;9.02;;;5.88;;
63112;SDS011;49206;48.020;21.378;2023-04-06T00:35:21;10.77;;;5.93;;
63112;SDS011;49206;48.020;21.378;2023-04-06T00:36:24;9.60;;;5.53;;
63112;SDS011;49206;48.020;21.378;2023-04-06T00:37:27;8.63;;;5.78;;
63112;SDS011;49206;48.020;21.378;2023-04-06T00:38:30;7.70;;;5.97;;
63112;SDS011;49206;48.020;21.378;2023-04-06T00:39:32;8.25;;;5.65;;
63112;SDS011;49206;48.020;21.378;2023-04-06T00:40:34;8.68;;;5.60;;
63112;SDS011;49206;48.020;21.378;2023-04-06T00:41:37;6.93;;;5.45;;
63112;SDS011;49206;48.020;21.378;2023-04-06T00:42:41;9.45;;;5.68;;
63112;SDS011;49206;48.020;21.378;2023-04-06T00:43:43;8.13;;;6.40;;
63112;SDS011;49206;48.020;21.378;2023-04-06T00:44:46;8.80;;;5.80;;
63112;SDS011;49206;48.020;21.378;2023-04-06T00:45:48;8.75;;;5.80;;
63112;SDS011;49206;48.020;21.378;2023-04-06T00:46:51;8.88;;;5.60;;
63112;SDS011;49206;48.020;21.378;2023-04-06T00:47:53;10.15;;;5.25;;
63112;SDS011;49206;48.020;21.378;2023-04-06T00:48:56;7.93;;;5.63;;
63112;SDS011;49206;48.020;21.378;2023-04-06T00:49:59;6.03;;;4.55;;
63112;SDS011;49206;48.020;21.378;2023-04-06T00:51:02;10.07;;;5.80;;
63112;SDS011;49206;48.020;21.378;2023-04-06T00:52:04;9.07;;;5.03;;
63112;SDS011;49206;48.020;21.378;2023-04-06T00:53:07;8.20;;;5.50;;
63112;SDS011;49206;48.020;21.378;2023-04-06T00:54:10;8.98;;;5.97;;
63112;SDS011;49206;48.020;21.378;2023-04-06T00:55:12;11.50;;;6.13;;
63112;SDS011;49206;48.020;21.378;2023-04-06T00:56:16;8.10;;;5.25;;
63112;SDS011;49206;48.020;21.378;2023-04-06T00:57:27;10.88;;;6.20;;
63112;SDS011;49206;48.020;21.378;2023-04-06T00:58:30;9.55;;;5.43;;
63112;SDS011;49206;48.020;21.378;2023-04-06T00:59:39;9.50;;;5.38;;
63112;SDS011;49206;48.020;21.378;2023-04-06T01:00:45;7.05;;;5.80;;
63112;SDS011;49206;48.020;21.378;2023-04-06T01:01:51;8.80;;;5.75;;
63112;SDS011;49206;48.020;21.378;2023-04-06T01:03:15;9.75;;;5.55;;
63112;SDS011;49206;48.020;21.378;2023-04-06T01:04:18;10.95;;;6.47;;
63112;SDS011;49206;48.020;21.378;2023-04-06T01:05:21;8.32;;;5.68;;
63112;SDS011;49206;48.020;21.378;2023-04-06T01:06:27;7.90;;;5.22;;
63112;SDS011;49206;48.020;21.378;2023-04-06T01:07:34;8.15;;;5.57;;
63112;SDS011;49206;48.020;21.378;2023-04-06T01:08:42;7.97;;;5.88;;
63112;SDS011;49206;48.020;21.378;2023-04-06T01:09:53;8.93;;;5.53;;
63112;SDS011;49206;48.020;21.378;2023-04-06T01:11:00;7.95;;;4.68;;
63112;SDS011;49206;48.020;21.378;2023-04-06T01:12:04;9.55;;;5.63;;
63112;SDS011;49206;48.020;21.378;2023-04-06T01:13:08;8.25;;;5.85;;
63112;SDS011;49206;48.020;21.378;2023-04-06T01:14:25;7.97;;;5.65;;
63112;SDS011;49206;48.020;21.378;2023-04-06T01:15:32;8.20;;;5.88;;
63112;SDS011;49206;48.020;21.378;2023-04-06T01:16:36;7.93;;;5.22;;
63112;SDS011;49206;48.020;21.378;2023-04-06T01:17:48;12.32;;;5.70;;
63112;SDS011;49206;48.020;21.378;2023-04-06T01:18:51;10.30;;;5.95;;
63112;SDS011;49206;48.020;21.378;2023-04-06T01:19:57;8.30;;;5.68;;
63112;SDS011;49206;48.020;21.378;2023-04-06T01:21:04;8.38;;;5.38;;
63112;SDS011;49206;48.020;21.378;2023-04-06T01:22:06;7.93;;;5.60;;
63112;SDS011;49206;48.020;21.378;2023-04-06T01:23:25;7.63;;;5.05;;
63112;SDS011;49206;48.020;21.378;2023-04-06T01:24:27;10.65;;;6.38;;
63112;SDS011;49206;48.020;21.378;2023-04-06T01:25:52;9.43;;;5.78;;
63112;SDS011;49206;48.020;21.378;2023-04-06T01:26:55;9.73;;;6.00;;
63112;SDS011;49206;48.020;21.378;2023-04-06T01:28:02;7.43;;;5.50;;
63112;SDS011;49206;48.020;21.378;2023-04-06T01:29:31;7.07;;;5.18;;
63112;SDS011;49206;48.020;21.378;2023-04-06T01:30:36;7.70;;;4.90;;
63112;SDS011;49206;48.020;21.378;2023-04-06T01:31:49;9.88;;;5.35;;
63112;SDS011;49206;48.020;21.378;2023-04-06T01:32:52;8.68;;;6.50;;
63112;SDS011;49206;48.020;21.378;2023-04-06T01:34:06;9.70;;;6.13;;
63112;SDS011;49206;48.020;21.378;2023-04-06T01:35:09;6.38;;;5.38;;
63112;SDS011;49206;48.020;21.378;2023-04-06T01:36:18;8.55;;;5.95;;
63112;SDS011;49206;48.020;21.378;2023-04-06T01:37:28;9.13;;;5.93;;
63112;SDS011;49206;48.020;21.378;2023-04-06T01:38:37;10.70;;;5.80;;
63112;SDS011;49206;48.020;21.378;2023-04-06T01:39:42;7.80;;;5.10;;
63112;SDS011;49206;48.020;21.378;2023-04-06T01:40:50;9.38;;;5.68;;
63112;SDS011;49206;48.020;21.378;2023-04-06T01:41:55;7.93;;;5.47;;
63112;SDS011;49206;48.020;21.378;2023-04-06T01:42:58;9.00;;;5.50;;
63112;SDS011;49206;48.020;21.378;2023-04-06T01:44:36;9.55;;;5.60;;
63112;SDS011;49206;48.020;21.378;2023-04-06T01:45:46;7.93;;;5.78;;
63112;SDS011;49206;48.020;21.378;2023-04-06T01:46:53;9.43;;;6.43;;
63112;SDS011;49206;48.020;21.378;2023-04-06T01:47:59;10.77;;;5.97;;
63112;SDS011;49206;48.020;21.378;2023-04-06T01:49:02;11.40;;;5.97;;
63112;SDS011;49206;48.020;21.378;2023-04-06T01:50:10;9.20;;;6.05;;
63112;SDS011;49206;48.020;21.378;2023-04-06T01:51:18;8.52;;;5.65;;
63112;SDS011;49206;48.020;21.378;2023-04-06T01:52:26;7.57;;;5.72;;
63112;SDS011;49206;48.020;21.378;2023-04-06T01:53:29;8.65;;;5.35;;
63112;SDS011;49206;48.020;21.378;2023-04-06T01:54:37;8.70;;;5.85;;
63112;SDS011;49206;48.020;21.378;2023-04-06T01:55:44;10.60;;;6.20;;
63112;SDS011;49206;48.020;21.378;2023-04-06T01:56:57;9.30;;;5.93;;
63112;SDS011;49206;48.020;21.378;2023-04-06T01:58:12;7.38;;;5.25;;
63112;SDS011;49206;48.020;21.378;2023-04-06T01:59:15;8.95;;;6.47;;
63112;SDS011;49206;48.020;21.378;2023-04-06T02:00:17;7.78;;;5.38;;
63112;SDS011;49206;48.020;21.378;2023-04-06T02:01:26;10.07;;;6.18;;
63112;SDS011;49206;48.020;21.378;2023-04-06T02:02:31;12.18;;;6.20;;
63112;SDS011;49206;48.020;21.378;2023-04-06T02:03:37;10.50;;;6.13;;
63112;SDS011;49206;48.020;21.378;2023-04-06T02:04:44;8.15;;;6.00;;
63112;SDS011;49206;48.020;21.378;2023-04-06T02:06:57;8.70;;;5.70;;
63112;SDS011;49206;48.020;21.378;2023-04-06T02:08:02;10.32;;;5.85;;
63112;SDS011;49206;48.020;21.378;2023-04-06T02:09:08;8.02;;;6.13;;
63112;SDS011;49206;48.020;21.378;2023-04-06T02:10:12;10.18;;;6.32;;
63112;SDS011;49206;48.020;21.378;2023-04-06T02:11:16;9.23;;;6.90;;
63112;SDS011;49206;48.020;21.378;2023-04-06T02:12:23;7.82;;;5.43;;
63112;SDS011;49206;48.020;21.378;2023-04-06T02:13:26;10.10;;;5.75;;
63112;SDS011;49206;48.020;21.378;2023-04-06T02:14:29;8.25;;;5.50;;
63112;SDS011;49206;48.020;21.378;2023-04-06T02:15:34;11.32;;;6.00;;
63112;SDS011;49206;48.020;21.378;2023-04-06T02:16:36;9.20;;;5.70;;
63112;SDS011;49206;48.020;21.378;2023-04-06T02:17:39;11.65;;;6.35;;
63112;SDS011;49206;48.020;21.378;2023-04-06T02:18:43;12.73;;;6.47;;
63112;SDS011;49206;48.020;21.378;2023-04-06T02:19:46;9.35;;;6.00;;
63112;SDS011;49206;48.020;21.378;2023-04-06T02:20:48;9.73;;;6.25;;
63112;SDS011;49206;48.020;21.378;2023-04-06T02:21:51;9.70;;;6.00;;
63112;SDS011;49206;48.020;21.378;2023-04-06T02:22:53;8.25;;;6.03;;
63112;SDS011;49206;48.020;21.378;2023-04-06T02:23:58;8.93;;;6.40;;
63112;SDS011;49206;48.020;21.378;2023-04-06T02:25:00;8.57;;;6.35;;
63112;SDS011;49206;48.020;21.378;2023-04-06T02:26:03;12.82;;;6.22;;
63112;SDS011;49206;48.020;21.378;2023-04-06T02:27:05;8.93;;;5.72;;
63112;SDS011;49206;48.020;21.378;2023-04-06T02:28:08;9.73;;;6.40;;
63112;SDS011;49206;48.020;21.378;2023-04-06T02:29:11;11.43;;;6.32;;
63112;SDS011;49206;48.020;21.378;2023-04-06T02:30:13;9.55;;;6.22;;
63112;SDS011;49206;48.020;21.378;2023-04-06T02:31:17;10.77;;;6.43;;
63112;SDS011;49206;48.020;21.378;2023-04-06T02:32:20;8.32;;;5.60;;
63112;SDS011;49206;48.020;21.378;2023-04-06T02:33:23;10.52;;;6.57;;
63112;SDS011;49206;48.020;21.378;2023-04-06T02:34:26;10.75;;;6.72;;
63112;SDS011;49206;48.020;21.378;2023-04-06T02:35:29;9.95;;;6.30;;
63112;SDS011;49206;48.020;21.378;2023-04-06T02:36:33;9.13;;;5.72;;
63112;SDS011;49206;48.020;21.378;2023-04-06T02:37:35;10.35;;;6.18;;
63112;SDS011;49206;48.020;21.378;2023-04-06T02:38:38;11.32;;;6.40;;
63112;SDS011;49206;48.020;21.378;2023-04-06T02:39:40;10.30;;;6.47;;
63112;SDS011;49206;48.020;21.378;2023-04-06T02:40:43;9.93;;;6.30;;
63112;SDS011;49206;48.020;21.378;2023-04-06T02:41:58;10.60;;;6.28;;
63112;SDS011;49206;48.020;21.378;2023-04-06T02:43:02;12.30;;;5.85;;
63112;SDS011;49206;48.020;21.378;2023-04-06T02:44:06;8.40;;;6.05;;
63112;SDS011;49206;48.020;21.378;2023-04-06T02:45:18;10.02;;;5.95;;
63112;SDS011;49206;48.020;21.378;2023-04-06T02:46:21;9.82;;;6.43;;
63112;SDS011;49206;48.020;21.378;2023-04-06T02:47:24;11.63;;;6.78;;
63112;SDS011;49206;48.020;21.378;2023-04-06T02:48:27;11.63;;;6.32;;
63112;SDS011;49206;48.020;21.378;2023-04-06T02:49:29;8.98;;;5.68;;
63112;SDS011;49206;48.020;21.378;2023-04-06T02:50:34;9.75;;;5.93;;
63112;SDS011;49206;48.020;21.378;2023-04-06T02:51:40;10.32;;;5.95;;
63112;SDS011;49206;48.020;21.378;2023-04-06T02:53:02;9.77;;;6.50;;
63112;SDS011;49206;48.020;21.378;2023-04-06T02:54:05;9.15;;;6.90;;
63112;SDS011;49206;48.020;21.378;2023-04-06T02:55:07;13.40;;;6.85;;
63112;SDS011;49206;48.020;21.378;2023-04-06T02:56:10;9.90;;;6.50;;
63112;SDS011;49206;48.020;21.378;2023-04-06T02:57:20;8.90;;;6.07;;
63112;SDS011;49206;48.020;21.378;2023-04-06T02:58:23;10.07;;;6.75;;
63112;SDS011;49206;48.020;21.378;2023-04-06T02:59:29;11.73;;;6.43;;
63112;SDS011;49206;48.020;21.378;2023-04-06T03:00:40;15.88;;;12.05;;
63112;SDS011;49206;48.020;21.378;2023-04-06T03:01:42;11.13;;;7.53;;
63112;SDS011;49206;48.020;21.378;2023-04-06T03:02:45;11.35;;;6.75;;
63112;SDS011;49206;48.020;21.378;2023-04-06T03:03:50;11.43;;;7.10;;
63112;SDS011;49206;48.020;21.378;2023-04-06T03:04:57;9.60;;;7.03;;
63112;SDS011;49206;48.020;21.378;2023-04-06T03:06:07;11.68;;;7.13;;
63112;SDS011;49206;48.020;21.378;2023-04-06T03:07:09;10.68;;;6.43;;
63112;SDS011;49206;48.020;21.378;2023-04-06T03:08:13;10.00;;;6.47;;
63112;SDS011;49206;48.020;21.378;2023-04-06T03:09:18;12.07;;;7.18;;
63112;SDS011;49206;48.020;21.378;2023-04-06T03:10:20;11.02;;;6.82;;
63112;SDS011;49206;48.020;21.378;2023-04-06T03:11:23;9.45;;;6.72;;
63112;SDS011;49206;48.020;21.378;2023-04-06T03:12:28;10.68;;;6.63;;
63112;SDS011;49206;48.020;21.378;2023-04-06T03:13:57;13.60;;;7.05;;
63112;SDS011;49206;48.020;21.378;2023-04-06T03:14:59;11.00;;;6.75;;
63112;SDS011;49206;48.020;21.378;2023-04-06T03:16:02;24.92;;;16.45;;
63112;SDS011;49206;48.020;21.378;2023-04-06T03:17:05;43.28;;;27.20;;
63112;SDS011;49206;48.020;21.378;2023-04-06T03:18:08;26.45;;;17.88;;
63112;SDS011;49206;48.020;21.378;2023-04-06T03:19:20;13.60;;;8.68;;
63112;SDS011;49206;48.020;21.378;2023-04-06T03:20:23;19.25;;;12.52;;
63112;SDS011;49206;48.020;21.378;2023-04-06T03:21:26;12.30;;;8.73;;
63112;SDS011;49206;48.020;21.378;2023-04-06T03:22:29;20.80;;;15.88;;
63112;SDS011;49206;48.020;21.378;2023-04-06T03:23:31;11.80;;;9.65;;
63112;SDS011;49206;48.020;21.378;2023-04-06T03:24:35;13.93;;;8.40;;
63112;SDS011;49206;48.020;21.378;2023-04-06T03:25:39;11.32;;;7.50;;
63112;SDS011;49206;48.020;21.378;2023-04-06T03:26:44;13.13;;;7.07;;
63112;SDS011;49206;48.020;21.378;2023-04-06T03:27:47;10.32;;;6.57;;
63112;SDS011;49206;48.020;21.378;2023-04-06T03:28:52;8.65;;;6.57;;
63112;SDS011;49206;48.020;21.378;2023-04-06T03:29:59;11.02;;;5.82;;
63112;SDS011;49206;48.020;21.378;2023-04-06T03:31:06;9.98;;;6.82;;
63112;SDS011;49206;48.020;21.378;2023-04-06T03:32:32;8.35;;;5.93;;
63112;SDS011;49206;48.020;21.378;2023-04-06T03:33:34;10.98;;;6.43;;
63112;SDS011;49206;48.020;21.378;2023-04-06T03:34:37;11.27;;;7.20;;
63112;SDS011;49206;48.020;21.378;2023-04-06T03:35:40;10.95;;;7.57;;
63112;SDS011;49206;48.020;21.378;2023-04-06T03:36:42;9.50;;;6.22;;
63112;SDS011;49206;48.020;21.378;2023-04-06T03:37:45;11.68;;;7.10;;
63112;SDS011;49206;48.020;21.378;2023-04-06T03:38:48;15.50;;;9.18;;
63112;SDS011;49206;48.020;21.378;2023-04-06T03:39:51;18.80;;;10.23;;
63112;SDS011;49206;48.020;21.378;2023-04-06T03:40:57;13.20;;;8.48;;
63112;SDS011;49206;48.020;21.378;2023-04-06T03:42:01;13.35;;;7.43;;
63112;SDS011;49206;48.020;21.378;2023-04-06T03:43:09;12.38;;;7.45;;
63112;SDS011;49206;48.020;21.378;2023-04-06T03:44:12;12.40;;;7.90;;
63112;SDS011;49206;48.020;21.378;2023-04-06T03:45:14;11.48;;;7.47;;
63112;SDS011;49206;48.020;21.378;2023-04-06T03:46:22;10.35;;;7.00;;
63112;SDS011;49206;48.020;21.378;2023-04-06T03:47:28;12.32;;;7.32;;
63112;SDS011;49206;48.020;21.378;2023-04-06T03:48:34;10.63;;;7.32;;
63112;SDS011;49206;48.020;21.378;2023-04-06T03:49:39;25.10;;;11.05;;
63112;SDS011;49206;48.020;21.378;2023-04-06T03:50:44;37.97;;;16.85;;
63112;SDS011;49206;48.020;21.378;2023-04-06T03:51:47;30.27;;;15.45;;
63112;SDS011;49206;48.020;21.378;2023-04-06T03:52:50;16.10;;;8.55;;
63112;SDS011;49206;48.020;21.378;2023-04-06T03:53:52;9.38;;;7.35;;
63112;SDS011;49206;48.020;21.378;2023-04-06T03:54:54;11.38;;;7.03;;
63112;SDS011;49206;48.020;21.378;2023-04-06T03:55:57;13.70;;;8.27;;
63112;SDS011;49206;48.020;21.378;2023-04-06T03:56:59;11.45;;;7.45;;
63112;SDS011;49206;48.020;21.378;2023-04-06T03:58:03;9.73;;;6.95;;
63112;SDS011;49206;48.020;21.378;2023-04-06T03:59:05;11.65;;;7.07;;
63112;SDS011;49206;48.020;21.378;2023-04-06T04:00:09;9.70;;;6.45;;
63112;SDS011;49206;48.020;21.378;2023-04-06T04:01:18;7.82;;;6.32;;
63112;SDS011;49206;48.020;21.378;2023-04-06T04:02:21;11.90;;;6.65;;
63112;SDS011;49206;48.020;21.378;2023-04-06T04:03:24;10.25;;;7.07;;
63112;SDS011;49206;48.020;21.378;2023-04-06T04:04:29;7.95;;;5.35;;
63112;SDS011;49206;48.020;21.378;2023-04-06T04:05:32;9.68;;;5.97;;
63112;SDS011;49206;48.020;21.378;2023-04-06T04:06:35;12.02;;;7.03;;
63112;SDS011;49206;48.020;21.378;2023-04-06T04:07:44;11.57;;;6.78;;
63112;SDS011;49206;48.020;21.378;2023-04-06T04:08:46;9.70;;;6.43;;
63112;SDS011;49206;48.020;21.378;2023-04-06T04:09:49;11.93;;;6.35;;
63112;SDS011;49206;48.020;21.378;2023-04-06T04:10:51;9.52;;;6.35;;
63112;SDS011;49206;48.020;21.378;2023-04-06T04:11:54;10.52;;;6.22;;
63112;SDS011;49206;48.020;21.378;2023-04-06T04:12:56;12.05;;;7.43;;
63112;SDS011;49206;48.020;21.378;2023-04-06T04:13:59;10.52;;;6.30;;
63112;SDS011;49206;48.020;21.378;2023-04-06T04:15:02;10.52;;;6.43;;
63112;SDS011;49206;48.020;21.378;2023-04-06T04:16:05;11.35;;;6.38;;
63112;SDS011;49206;48.020;21.378;2023-04-06T04:17:07;11.27;;;6.63;;
63112;SDS011;49206;48.020;21.378;2023-04-06T04:18:09;9.07;;;6.13;;
63112;SDS011;49206;48.020;21.378;2023-04-06T04:19:14;7.38;;;6.30;;
63112;SDS011;49206;48.020;21.378;2023-04-06T04:20:17;8.95;;;6.65;;
63112;SDS011;49206;48.020;21.378;2023-04-06T04:21:19;10.07;;;6.88;;
63112;SDS011;49206;48.020;21.378;2023-04-06T04:22:22;9.48;;;6.38;;
63112;SDS011;49206;48.020;21.378;2023-04-06T04:23:24;8.98;;;6.30;;
63112;SDS011;49206;48.020;21.378;2023-04-06T04:24:26;11.63;;;7.18;;
63112;SDS011;49206;48.020;21.378;2023-04-06T04:25:29;12.18;;;6.32;;
63112;SDS011;49206;48.020;21.378;2023-04-06T04:26:32;10.13;;;6.25;;
63112;SDS011;49206;48.020;21.378;2023-04-06T04:27:34;9.70;;;6.50;;
63112;SDS011;49206;48.020;21.378;2023-04-06T04:28:37;8.18;;;6.15;;
63112;SDS011;49206;48.020;21.378;2023-04-06T04:29:40;13.65;;;6.05;;
63112;SDS011;49206;48.020;21.378;2023-04-06T04:30:45;9.50;;;6.10;;
63112;SDS011;49206;48.020;21.378;2023-04-06T04:31:49;9.10;;;6.40;;
63112;SDS011;49206;48.020;21.378;2023-04-06T04:32:52;11.05;;;5.82;;
63112;SDS011;49206;48.020;21.378;2023-04-06T04:33:57;9.55;;;6.43;;
63112;SDS011;49206;48.020;21.378;2023-04-06T04:35:04;8.63;;;6.18;;
63112;SDS011;49206;48.020;21.378;2023-04-06T04:36:11;12.05;;;6.57;;
63112;SDS011;49206;48.020;21.378;2023-04-06T04:37:17;8.52;;;6.47;;
63112;SDS011;49206;48.020;21.378;2023-04-06T04:38:24;8.93;;;6.35;;
63112;SDS011;49206;48.020;21.378;2023-04-06T04:39:29;9.00;;;6.30;;
63112;SDS011;49206;48.020;21.378;2023-04-06T04:40:37;10.13;;;6.45;;
63112;SDS011;49206;48.020;21.378;2023-04-06T04:41:44;9.20;;;5.85;;
63112;SDS011;49206;48.020;21.378;2023-04-06T04:42:47;9.20;;;5.93;;
63112;SDS011;49206;48.020;21.378;2023-04-06T04:43:57;11.07;;;6.40;;
63112;SDS011;49206;48.020;21.378;2023-04-06T04:45:01;7.38;;;6.20;;
63112;SDS011;49206;48.020;21.378;2023-04-06T04:46:10;9.70;;;6.15;;
63112;SDS011;49206;48.020;21.378;2023-04-06T04:47:14;12.07;;;6.78;;
63112;SDS011;49206;48.020;21.378;2023-04-06T04:48:21;12.52;;;6.38;;
63112;SDS011;49206;48.020;21.378;2023-04-06T04:49:33;7.35;;;5.15;;
63112;SDS011;49206;48.020;21.378;2023-04-06T04:50:37;9.73;;;6.55;;
63112;SDS011;49206;48.020;21.378;2023-04-06T04:51:39;8.00;;;5.88;;
63112;SDS011;49206;48.020;21.378;2023-04-06T04:52:57;9.85;;;5.97;;
63112;SDS011;49206;48.020;21.378;2023-04-06T04:54:00;10.27;;;6.30;;
63112;SDS011;49206;48.020;21.378;2023-04-06T04:55:05;9.60;;;6.55;;
63112;SDS011;49206;48.020;21.378;2023-04-06T04:56:08;9.52;;;6.22;;
63112;SDS011;49206;48.020;21.378;2023-04-06T04:57:10;9.98;;;5.32;;
63112;SDS011;49206;48.020;21.378;2023-04-06T04:58:15;12.20;;;6.97;;
63112;SDS011;49206;48.020;21.378;2023-04-06T04:59:29;8.20;;;6.25;;
63112;SDS011;49206;48.020;21.378;2023-04-06T05:00:41;12.68;;;5.95;;
63112;SDS011;49206;48.020;21.378;2023-04-06T05:01:44;12.05;;;7.03;;
63112;SDS011;49206;48.020;21.378;2023-04-06T05:03:02;8.45;;;5.85;;
63112;SDS011;49206;48.020;21.378;2023-04-06T05:04:10;9.55;;;6.03;;
63112;SDS011;49206;48.020;21.378;2023-04-06T05:05:13;9.52;;;5.88;;
63112;SDS011;49206;48.020;21.378;2023-04-06T05:06:16;9.65;;;5.93;;
63112;SDS011;49206;48.020;21.378;2023-04-06T05:07:20;19.00;;;7.85;;
63112;SDS011;49206;48.020;21.378;2023-04-06T05:08:23;17.83;;;8.80;;
63112;SDS011;49206;48.020;21.378;2023-04-06T05:09:26;14.25;;;7.47;;
63112;SDS011;49206;48.020;21.378;2023-04-06T05:10:29;14.05;;;7.18;;
63112;SDS011;49206;48.020;21.378;2023-04-06T05:11:35;11.35;;;6.47;;
63112;SDS011;49206;48.020;21.378;2023-04-06T05:12:37;10.55;;;6.90;;
63112;SDS011;49206;48.020;21.378;2023-04-06T05:13:42;12.00;;;5.68;;
63112;SDS011;49206;48.020;21.378;2023-04-06T05:14:50;9.93;;;6.22;;
63112;SDS011;49206;48.020;21.378;2023-04-06T05:15:54;10.05;;;5.93;;
63112;SDS011;49206;48.020;21.378;2023-04-06T05:17:06;6.38;;;5.30;;
63112;SDS011;49206;48.020;21.378;2023-04-06T05:18:08;11.13;;;6.47;;
63112;SDS011;49206;48.020;21.378;2023-04-06T05:19:11;10.00;;;6.00;;
63112;SDS011;49206;48.020;21.378;2023-04-06T05:20:18;9.77;;;5.93;;
63112;SDS011;49206;48.020;21.378;2023-04-06T05:21:24;9.18;;;6.60;;
63112;SDS011;49206;48.020;21.378;2023-04-06T05:22:35;10.13;;;5.78;;
63112;SDS011;49206;48.020;21.378;2023-04-06T05:23:41;10.15;;;6.35;;
63112;SDS011;49206;48.020;21.378;2023-04-06T05:24:45;10.05;;;6.13;;
63112;SDS011;49206;48.020;21.378;2023-04-06T05:25:47;10.70;;;6.30;;
63112;SDS011;49206;48.020;21.378;2023-04-06T05:26:55;8.77;;;5.40;;
63112;SDS011;49206;48.020;21.378;2023-04-06T05:27:58;11.05;;;6.22;;
63112;SDS011;49206;48.020;21.378;2023-04-06T05:29:07;10.27;;;6.00;;
63112;SDS011;49206;48.020;21.378;2023-04-06T05:30:12;10.93;;;5.35;;
63112;SDS011;49206;48.020;21.378;2023-04-06T05:31:18;9.15;;;6.57;;
63112;SDS011;49206;48.020;21.378;2023-04-06T05:32:25;10.43;;;6.20;;
63112;SDS011;49206;48.020;21.378;2023-04-06T05:33:28;11.27;;;6.90;;
63112;SDS011;49206;48.020;21.378;2023-04-06T05:34:43;9.55;;;6.55;;
63112;SDS011;49206;48.020;21.378;2023-04-06T05:35:45;8.18;;;5.53;;
63112;SDS011;49206;48.020;21.378;2023-04-06T05:36:48;9.43;;;6.32;;
63112;SDS011;49206;48.020;21.378;2023-04-06T05:37:54;10.88;;;6.40;;
63112;SDS011;49206;48.020;21.378;2023-04-06T05:38:59;11.00;;;7.32;;
63112;SDS011;49206;48.020;21.378;2023-04-06T05:40:25;9.20;;;6.55;;
63112;SDS011;49206;48.020;21.378;2023-04-06T05:41:29;11.15;;;7.00;;
63112;SDS011;49206;48.020;21.378;2023-04-06T05:42:42;9.55;;;7.00;;
63112;SDS011;49206;48.020;21.378;2023-04-06T05:43:45;11.38;;;6.90;;
63112;SDS011;49206;48.020;21.378;2023-04-06T05:44:48;9.25;;;6.78;;
63112;SDS011;49206;48.020;21.378;2023-04-06T05:45:51;11.80;;;6.97;;
63112;SDS011;49206;48.020;21.378;2023-04-06T05:46:54;10.25;;;7.18;;
63112;SDS011;49206;48.020;21.378;2023-04-06T05:47:57;10.70;;;6.78;;
63112;SDS011;49206;48.020;21.378;2023-04-06T05:49:03;14.27;;;7.80;;
63112;SDS011;49206;48.020;21.378;2023-04-06T05:50:09;11.82;;;6.93;;
63112;SDS011;49206;48.020;21.378;2023-04-06T05:51:13;9.73;;;6.82;;
63112;SDS011;49206;48.020;21.378;2023-04-06T05:52:22;9.45;;;7.10;;
63112;SDS011;49206;48.020;21.378;2023-04-06T05:53:24;10.45;;;7.28;;
63112;SDS011;49206;48.020;21.378;2023-04-06T05:54:31;11.43;;;7.15;;
63112;SDS011;49206;48.020;21.378;2023-04-06T05:55:36;17.83;;;8.50;;
63112;SDS011;49206;48.020;21.378;2023-04-06T05:56:49;13.25;;;8.50;;
63112;SDS011;49206;48.020;21.378;2023-04-06T05:57:51;13.68;;;8.20;;
63112;SDS011;49206;48.020;21.378;2023-04-06T05:58:55;15.05;;;8.15;;
63112;SDS011;49206;48.020;21.378;2023-04-06T06:00:02;14.18;;;8.50;;
63112;SDS011;49206;48.020;21.378;2023-04-06T06:01:20;13.90;;;7.80;;
63112;SDS011;49206;48.020;21.378;2023-04-06T06:02:22;13.95;;;8.50;;
63112;SDS011;49206;48.020;21.378;2023-04-06T06:04:31;11.02;;;7.47;;
63112;SDS011;49206;48.020;21.378;2023-04-06T06:05:34;12.65;;;7.80;;
63112;SDS011;49206;48.020;21.378;2023-04-06T06:06:51;13.18;;;7.70;;
63112;SDS011;49206;48.020;21.378;2023-04-06T06:08:00;13.75;;;8.15;;
63112;SDS011;49206;48.020;21.378;2023-04-06T06:09:04;16.23;;;8.80;;
63112;SDS011;49206;48.020;21.378;2023-04-06T06:10:12;14.27;;;8.02;;
63112;SDS011;49206;48.020;21.378;2023-04-06T06:11:17;13.52;;;8.35;;
63112;SDS011;49206;48.020;21.378;2023-04-06T06:12:20;11.98;;;7.50;;
63112;SDS011;49206;48.020;21.378;2023-04-06T06:13:24;12.75;;;8.30;;
63112;SDS011;49206;48.020;21.378;2023-04-06T06:14:26;12.45;;;8.27;;
63112;SDS011;49206;48.020;21.378;2023-04-06T06:15:32;13.45;;;8.95;;
63112;SDS011;49206;48.020;21.378;2023-04-06T06:16:36;14.80;;;9.18;;
63112;SDS011;49206;48.020;21.378;2023-04-06T06:17:40;15.18;;;8.80;;
63112;SDS011;49206;48.020;21.378;2023-04-06T06:18:42;13.75;;;8.93;;
63112;SDS011;49206;48.020;21.378;2023-04-06T06:19:45;12.85;;;8.40;;
63112;SDS011;49206;48.020;21.378;2023-04-06T06:20:47;13.73;;;8.23;;
63112;SDS011;49206;48.020;21.378;2023-04-06T06:21:49;15.00;;;8.38;;
63112;SDS011;49206;48.020;21.378;2023-04-06T06:22:52;12.50;;;8.63;;
63112;SDS011;49206;48.020;21.378;2023-04-06T06:24:58;12.10;;;8.10;;
63112;SDS011;49206;48.020;21.378;2023-04-06T06:26:01;12.93;;;8.88;;
63112;SDS011;49206;48.020;21.378;2023-04-06T06:27:04;17.88;;;9.45;;
63112;SDS011;49206;48.020;21.378;2023-04-06T06:28:08;15.70;;;9.63;;